sensor_id;sensor_type;location;lat;lon;timestamp;temperature;humidity
20041;DHT22;10181;48.072;9.884;2023-01-15T00:02:11;8.60;99.90
20041;DHT22;10181;48.072;9.884;2023-01-15T00:04:41;8.60;99.90
20041;DHT22;10181;48.072;9.884;2023-01-15T00:07:06;8.70;99.90
20041;DHT22;10181;48.072;9.884;2023-01-15T00:09:32;8.80;99.90
20041;DHT22;10181;48.072;9.884;2023-01-15T00:11:57;8.90;99.90
20041;DHT22;10181;48.072;9.884;2023-01-15T00:14:23;9.00;99.90
20041;DHT22;10181;48.072;9.884;2023-01-15T00:16:54;9.00;99.90
20041;DHT22;10181;48.072;9.884;2023-01-15T00:19:20;9.00;99.90
20041;DHT22;10181;48.072;9.884;2023-01-15T00:21:45;9.00;99.90
20041;DHT22;10181;48.072;9.884;2023-01-15T00:24:11;9.20;99.90
20041;DHT22;10181;48.072;9.884;2023-01-15T00:26:55;9.30;99.90
20041;DHT22;10181;48.072;9.884;2023-01-15T00:29:39;9.40;99.90
20041;DHT22;10181;48.072;9.884;2023-01-15T00:32:07;9.40;99.90
20041;DHT22;10181;48.072;9.884;2023-01-15T00:34:33;9.40;99.90
20041;DHT22;10181;48.072;9.884;2023-01-15T00:37:00;9.60;99.90
20041;DHT22;10181;48.072;9.884;2023-01-15T00:39:26;9.60;99.90
20041;DHT22;10181;48.072;9.884;2023-01-15T00:41:52;9.50;99.90
20041;DHT22;10181;48.072;9.884;2023-01-15T00:44:18;9.60;99.90
20041;DHT22;10181;48.072;9.884;2023-01-15T00:46:44;9.60;99.90
20041;DHT22;10181;48.072;9.884;2023-01-15T00:49:10;9.70;99.90
20041;DHT22;10181;48.072;9.884;2023-01-15T00:51:36;9.70;99.90
20041;DHT22;10181;48.072;9.884;2023-01-15T00:54:02;9.80;99.90
20041;DHT22;10181;48.072;9.884;2023-01-15T00:56:27;9.80;99.90
20041;DHT22;10181;48.072;9.884;2023-01-15T00:58:53;9.90;99.90
20041;DHT22;10181;48.072;9.884;2023-01-15T01:01:19;9.90;99.90
20041;DHT22;10181;48.072;9.884;2023-01-15T01:03:45;10.00;99.90
20041;DHT22;10181;48.072;9.884;2023-01-15T01:06:14;9.90;99.90
20041;DHT22;10181;48.072;9.884;2023-01-15T01:08:40;10.00;99.90
20041;DHT22;10181;48.072;9.884;2023-01-15T01:11:08;10.10;99.90
20041;DHT22;10181;48.072;9.884;2023-01-15T01:13:35;10.10;99.90
20041;DHT22;10181;48.072;9.884;2023-01-15T01:16:01;10.20;99.90
20041;DHT22;10181;48.072;9.884;2023-01-15T01:18:27;10.10;99.90
20041;DHT22;10181;48.072;9.884;2023-01-15T01:20:53;10.20;99.90
20041;DHT22;10181;48.072;9.884;2023-01-15T01:23:19;10.20;99.90
20041;DHT22;10181;48.072;9.884;2023-01-15T01:25:46;10.20;99.90
20041;DHT22;10181;48.072;9.884;2023-01-15T01:28:12;10.10;99.90
20041;DHT22;10181;48.072;9.884;2023-01-15T01:30:38;10.10;99.90
20041;DHT22;10181;48.072;9.884;2023-01-15T01:33:04;10.10;99.90
20041;DHT22;10181;48.072;9.884;2023-01-15T01:35:29;10.10;99.90
20041;DHT22;10181;48.072;9.884;2023-01-15T01:37:55;10.10;99.90
20041;DHT22;10181;48.072;9.884;2023-01-15T01:40:21;10.10;99.90
20041;DHT22;10181;48.072;9.884;2023-01-15T01:42:47;10.10;99.90
20041;DHT22;10181;48.072;9.884;2023-01-15T01:45:17;10.10;99.90
20041;DHT22;10181;48.072;9.884;2023-01-15T01:47:44;10.10;99.90
20041;DHT22;10181;48.072;9.884;2023-01-15T01:50:12;10.00;99.90
20041;DHT22;10181;48.072;9.884;2023-01-15T01:53:12;10.00;99.90
20041;DHT22;10181;48.072;9.884;2023-01-15T01:55:39;10.00;99.90
20041;DHT22;10181;48.072;9.884;2023-01-15T01:58:07;10.10;99.90
20041;DHT22;10181;48.072;9.884;2023-01-15T02:00:35;10.10;99.90
20041;DHT22;10181;48.072;9.884;2023-01-15T02:03:05;10.10;99.90
20041;DHT22;10181;48.072;9.884;2023-01-15T02:05:36;10.00;99.90
20041;DHT22;10181;48.072;9.884;2023-01-15T02:08:03;10.00;99.90
20041;DHT22;10181;48.072;9.884;2023-01-15T02:10:29;9.90;99.90
20041;DHT22;10181;48.072;9.884;2023-01-15T02:13:17;9.80;99.90
20041;DHT22;10181;48.072;9.884;2023-01-15T02:15:50;9.80;99.90
20041;DHT22;10181;48.072;9.884;2023-01-15T02:18:23;9.70;99.90
20041;DHT22;10181;48.072;9.884;2023-01-15T02:23:56;9.80;99.90
20041;DHT22;10181;48.072;9.884;2023-01-15T02:29:16;9.70;99.90
20041;DHT22;10181;48.072;9.884;2023-01-15T02:31:49;9.70;99.90
20041;DHT22;10181;48.072;9.884;2023-01-15T02:34:20;9.80;99.90
20041;DHT22;10181;48.072;9.884;2023-01-15T02:36:51;9.70;99.90
20041;DHT22;10181;48.072;9.884;2023-01-15T02:39:18;9.70;99.90
20041;DHT22;10181;48.072;9.884;2023-01-15T02:41:48;9.80;99.90
20041;DHT22;10181;48.072;9.884;2023-01-15T02:44:17;9.80;99.90
20041;DHT22;10181;48.072;9.884;2023-01-15T02:46:44;9.90;99.90
20041;DHT22;10181;48.072;9.884;2023-01-15T02:49:14;9.90;99.90
20041;DHT22;10181;48.072;9.884;2023-01-15T02:51:52;10.00;99.90
20041;DHT22;10181;48.072;9.884;2023-01-15T02:54:20;9.90;99.90
20041;DHT22;10181;48.072;9.884;2023-01-15T02:56:48;10.00;99.90
20041;DHT22;10181;48.072;9.884;2023-01-15T02:59:22;9.90;99.90
20041;DHT22;10181;48.072;9.884;2023-01-15T03:02:09;9.90;99.90
20041;DHT22;10181;48.072;9.884;2023-01-15T03:04:46;9.90;99.90
20041;DHT22;10181;48.072;9.884;2023-01-15T03:07:21;9.80;99.90
20041;DHT22;10181;48.072;9.884;2023-01-15T03:09:49;9.80;99.90
20041;DHT22;10181;48.072;9.884;2023-01-15T03:15:10;9.80;99.90
20041;DHT22;10181;48.072;9.884;2023-01-15T03:18:07;9.90;99.90
20041;DHT22;10181;48.072;9.884;2023-01-15T03:20:36;9.90;99.90
20041;DHT22;10181;48.072;9.884;2023-01-15T03:23:09;10.00;99.90
20041;DHT22;10181;48.072;9.884;2023-01-15T03:25:43;10.00;99.90
20041;DHT22;10181;48.072;9.884;2023-01-15T03:28:10;10.00;99.90
20041;DHT22;10181;48.072;9.884;2023-01-15T03:30:38;10.00;99.90
20041;DHT22;10181;48.072;9.884;2023-01-15T03:33:04;10.00;99.90
20041;DHT22;10181;48.072;9.884;2023-01-15T03:35:49;10.00;99.90
20041;DHT22;10181;48.072;9.884;2023-01-15T03:38:19;10.00;99.90
20041;DHT22;10181;48.072;9.884;2023-01-15T03:43:20;9.90;99.90
20041;DHT22;10181;48.072;9.884;2023-01-15T03:46:34;9.80;99.90
20041;DHT22;10181;48.072;9.884;2023-01-15T04:00:18;9.90;99.90
20041;DHT22;10181;48.072;9.884;2023-01-15T04:02:46;10.00;99.90
20041;DHT22;10181;48.072;9.884;2023-01-15T04:05:13;10.00;99.90
20041;DHT22;10181;48.072;9.884;2023-01-15T04:07:39;10.00;99.90
20041;DHT22;10181;48.072;9.884;2023-01-15T04:10:09;10.00;99.90
20041;DHT22;10181;48.072;9.884;2023-01-15T04:12:34;10.00;99.90
20041;DHT22;10181;48.072;9.884;2023-01-15T04:15:00;10.00;99.90
20041;DHT22;10181;48.072;9.884;2023-01-15T04:17:26;10.00;99.90
20041;DHT22;10181;48.072;9.884;2023-01-15T04:19:51;10.00;99.90
20041;DHT22;10181;48.072;9.884;2023-01-15T04:22:17;10.00;99.90
20041;DHT22;10181;48.072;9.884;2023-01-15T04:24:42;10.00;99.90
20041;DHT22;10181;48.072;9.884;2023-01-15T04:27:08;10.00;99.90
20041;DHT22;10181;48.072;9.884;2023-01-15T04:29:34;10.00;99.90
20041;DHT22;10181;48.072;9.884;2023-01-15T04:31:59;10.00;99.90
20041;DHT22;10181;48.072;9.884;2023-01-15T04:34:26;10.00;99.90
20041;DHT22;10181;48.072;9.884;2023-01-15T04:36:54;10.00;99.90
20041;DHT22;10181;48.072;9.884;2023-01-15T04:39:19;10.00;99.90
20041;DHT22;10181;48.072;9.884;2023-01-15T04:41:45;10.00;99.90
20041;DHT22;10181;48.072;9.884;2023-01-15T04:44:31;10.00;99.90
20041;DHT22;10181;48.072;9.884;2023-01-15T04:46:57;9.90;99.90
20041;DHT22;10181;48.072;9.884;2023-01-15T04:49:24;9.90;99.90
20041;DHT22;10181;48.072;9.884;2023-01-15T04:51:50;9.80;99.90
20041;DHT22;10181;48.072;9.884;2023-01-15T04:54:16;9.80;99.90
20041;DHT22;10181;48.072;9.884;2023-01-15T04:56:45;9.80;99.90
20041;DHT22;10181;48.072;9.884;2023-01-15T04:59:12;9.70;99.90
20041;DHT22;10181;48.072;9.884;2023-01-15T05:01:38;9.70;99.90
20041;DHT22;10181;48.072;9.884;2023-01-15T05:04:04;9.70;99.90
20041;DHT22;10181;48.072;9.884;2023-01-15T05:06:30;9.60;99.90
20041;DHT22;10181;48.072;9.884;2023-01-15T05:08:57;9.60;99.90
20041;DHT22;10181;48.072;9.884;2023-01-15T05:11:23;9.50;99.90
20041;DHT22;10181;48.072;9.884;2023-01-15T05:13:48;9.50;99.90
20041;DHT22;10181;48.072;9.884;2023-01-15T05:16:20;9.40;99.90
20041;DHT22;10181;48.072;9.884;2023-01-15T05:18:46;9.40;99.90
20041;DHT22;10181;48.072;9.884;2023-01-15T05:21:22;9.40;99.90
20041;DHT22;10181;48.072;9.884;2023-01-15T05:23:49;9.40;99.90
20041;DHT22;10181;48.072;9.884;2023-01-15T05:26:16;9.40;99.90
20041;DHT22;10181;48.072;9.884;2023-01-15T05:28:42;9.40;99.90
20041;DHT22;10181;48.072;9.884;2023-01-15T05:31:09;9.50;99.90
20041;DHT22;10181;48.072;9.884;2023-01-15T05:33:36;9.60;99.90
20041;DHT22;10181;48.072;9.884;2023-01-15T05:36:03;9.50;99.90
20041;DHT22;10181;48.072;9.884;2023-01-15T05:38:29;9.60;99.90
20041;DHT22;10181;48.072;9.884;2023-01-15T05:40:55;9.60;99.90
20041;DHT22;10181;48.072;9.884;2023-01-15T05:43:21;9.60;99.90
20041;DHT22;10181;48.072;9.884;2023-01-15T05:45:47;9.70;99.90
20041;DHT22;10181;48.072;9.884;2023-01-15T05:48:12;9.60;99.90
20041;DHT22;10181;48.072;9.884;2023-01-15T05:50:38;9.60;99.90
20041;DHT22;10181;48.072;9.884;2023-01-15T05:53:03;9.60;99.90
20041;DHT22;10181;48.072;9.884;2023-01-15T05:55:29;9.60;99.90
20041;DHT22;10181;48.072;9.884;2023-01-15T05:57:55;9.70;99.90
20041;DHT22;10181;48.072;9.884;2023-01-15T06:00:22;9.70;99.90
20041;DHT22;10181;48.072;9.884;2023-01-15T06:02:48;9.60;99.90
20041;DHT22;10181;48.072;9.884;2023-01-15T06:05:15;9.60;99.90
20041;DHT22;10181;48.072;9.884;2023-01-15T06:07:46;9.60;99.90
20041;DHT22;10181;48.072;9.884;2023-01-15T06:10:12;9.50;99.90
20041;DHT22;10181;48.072;9.884;2023-01-15T06:12:38;9.40;99.90
20041;DHT22;10181;48.072;9.884;2023-01-15T06:15:04;9.30;99.90
20041;DHT22;10181;48.072;9.884;2023-01-15T06:17:29;9.40;99.90
20041;DHT22;10181;48.072;9.884;2023-01-15T06:19:55;9.40;99.90
20041;DHT22;10181;48.072;9.884;2023-01-15T06:22:20;9.30;99.90
20041;DHT22;10181;48.072;9.884;2023-01-15T06:24:46;9.30;99.90
20041;DHT22;10181;48.072;9.884;2023-01-15T06:27:11;9.30;99.90
20041;DHT22;10181;48.072;9.884;2023-01-15T06:29:37;9.30;99.90
20041;DHT22;10181;48.072;9.884;2023-01-15T06:32:03;9.30;99.90
20041;DHT22;10181;48.072;9.884;2023-01-15T06:34:28;9.20;99.90
20041;DHT22;10181;48.072;9.884;2023-01-15T06:36:54;9.20;99.90
20041;DHT22;10181;48.072;9.884;2023-01-15T06:39:19;9.20;99.90
20041;DHT22;10181;48.072;9.884;2023-01-15T06:41:45;9.20;99.90
20041;DHT22;10181;48.072;9.884;2023-01-15T06:44:29;9.20;99.90
20041;DHT22;10181;48.072;9.884;2023-01-15T06:47:15;9.20;99.90
20041;DHT22;10181;48.072;9.884;2023-01-15T06:49:52;9.20;99.90
20041;DHT22;10181;48.072;9.884;2023-01-15T06:52:19;9.20;99.90
20041;DHT22;10181;48.072;9.884;2023-01-15T06:54:45;9.10;99.90
20041;DHT22;10181;48.072;9.884;2023-01-15T06:57:11;9.10;99.90
20041;DHT22;10181;48.072;9.884;2023-01-15T06:59:36;9.00;99.90
20041;DHT22;10181;48.072;9.884;2023-01-15T07:02:02;8.90;99.90
20041;DHT22;10181;48.072;9.884;2023-01-15T07:04:28;8.90;99.90
20041;DHT22;10181;48.072;9.884;2023-01-15T07:06:53;8.80;99.90
20041;DHT22;10181;48.072;9.884;2023-01-15T07:09:19;8.70;99.90
20041;DHT22;10181;48.072;9.884;2023-01-15T07:11:44;8.70;99.90
20041;DHT22;10181;48.072;9.884;2023-01-15T07:14:18;8.60;99.90
20041;DHT22;10181;48.072;9.884;2023-01-15T07:16:44;8.50;99.90
20041;DHT22;10181;48.072;9.884;2023-01-15T07:19:10;8.40;99.90
20041;DHT22;10181;48.072;9.884;2023-01-15T07:21:35;8.40;99.90
20041;DHT22;10181;48.072;9.884;2023-01-15T07:24:01;8.30;99.90
20041;DHT22;10181;48.072;9.884;2023-01-15T07:26:27;8.30;99.90
20041;DHT22;10181;48.072;9.884;2023-01-15T07:28:53;8.20;99.90
20041;DHT22;10181;48.072;9.884;2023-01-15T07:31:18;8.30;99.90
20041;DHT22;10181;48.072;9.884;2023-01-15T07:33:44;8.30;99.90
20041;DHT22;10181;48.072;9.884;2023-01-15T07:36:10;8.30;99.90
20041;DHT22;10181;48.072;9.884;2023-01-15T07:38:35;8.30;99.90
20041;DHT22;10181;48.072;9.884;2023-01-15T07:41:01;8.30;99.90
20041;DHT22;10181;48.072;9.884;2023-01-15T07:43:45;8.30;99.90
20041;DHT22;10181;48.072;9.884;2023-01-15T07:46:29;8.20;99.90
20041;DHT22;10181;48.072;9.884;2023-01-15T07:49:14;8.20;99.90
20041;DHT22;10181;48.072;9.884;2023-01-15T07:51:58;8.30;99.90
20041;DHT22;10181;48.072;9.884;2023-01-15T07:54:24;8.30;99.90
20041;DHT22;10181;48.072;9.884;2023-01-15T07:56:51;8.30;99.90
20041;DHT22;10181;48.072;9.884;2023-01-15T07:59:18;8.40;99.90
20041;DHT22;10181;48.072;9.884;2023-01-15T08:01:44;8.40;99.90
20041;DHT22;10181;48.072;9.884;2023-01-15T08:04:10;8.40;99.90
20041;DHT22;10181;48.072;9.884;2023-01-15T08:06:36;8.40;99.90
20041;DHT22;10181;48.072;9.884;2023-01-15T08:09:02;8.50;99.90
20041;DHT22;10181;48.072;9.884;2023-01-15T08:11:28;8.50;99.90
20041;DHT22;10181;48.072;9.884;2023-01-15T08:14:12;8.50;99.90
20041;DHT22;10181;48.072;9.884;2023-01-15T08:16:56;8.50;99.90
20041;DHT22;10181;48.072;9.884;2023-01-15T08:19:22;8.50;99.90
20041;DHT22;10181;48.072;9.884;2023-01-15T08:21:49;8.60;99.90
20041;DHT22;10181;48.072;9.884;2023-01-15T08:24:15;8.60;99.90
20041;DHT22;10181;48.072;9.884;2023-01-15T08:26:41;8.70;99.90
20041;DHT22;10181;48.072;9.884;2023-01-15T08:29:07;8.70;99.90
20041;DHT22;10181;48.072;9.884;2023-01-15T08:31:32;8.70;99.90
20041;DHT22;10181;48.072;9.884;2023-01-15T08:33:58;8.80;99.90
20041;DHT22;10181;48.072;9.884;2023-01-15T08:36:23;8.80;99.90
20041;DHT22;10181;48.072;9.884;2023-01-15T08:38:49;8.90;99.90
20041;DHT22;10181;48.072;9.884;2023-01-15T08:41:15;9.10;99.90
20041;DHT22;10181;48.072;9.884;2023-01-15T08:43:40;9.10;99.90
20041;DHT22;10181;48.072;9.884;2023-01-15T08:46:07;9.30;99.90
20041;DHT22;10181;48.072;9.884;2023-01-15T08:48:33;9.30;99.90
20041;DHT22;10181;48.072;9.884;2023-01-15T08:51:03;9.40;99.90
20041;DHT22;10181;48.072;9.884;2023-01-15T08:53:29;9.40;99.90
20041;DHT22;10181;48.072;9.884;2023-01-15T08:55:55;9.60;99.90
20041;DHT22;10181;48.072;9.884;2023-01-15T08:58:21;9.50;99.90
20041;DHT22;10181;48.072;9.884;2023-01-15T09:00:46;9.60;99.90
20041;DHT22;10181;48.072;9.884;2023-01-15T09:03:13;9.60;99.90
20041;DHT22;10181;48.072;9.884;2023-01-15T09:05:39;9.70;99.90
20041;DHT22;10181;48.072;9.884;2023-01-15T09:08:06;9.70;99.90
20041;DHT22;10181;48.072;9.884;2023-01-15T09:10:32;9.70;99.90
20041;DHT22;10181;48.072;9.884;2023-01-15T09:12:59;9.50;99.90
20041;DHT22;10181;48.072;9.884;2023-01-15T09:15:26;8.60;99.90
20041;DHT22;10181;48.072;9.884;2023-01-15T09:17:51;7.40;99.90
20041;DHT22;10181;48.072;9.884;2023-01-15T09:20:17;6.50;99.90
20041;DHT22;10181;48.072;9.884;2023-01-15T09:22:43;6.00;99.90
20041;DHT22;10181;48.072;9.884;2023-01-15T09:25:08;5.70;99.90
20041;DHT22;10181;48.072;9.884;2023-01-15T09:27:34;5.60;99.90
20041;DHT22;10181;48.072;9.884;2023-01-15T09:30:02;5.50;99.90
20041;DHT22;10181;48.072;9.884;2023-01-15T09:32:28;5.40;99.90
20041;DHT22;10181;48.072;9.884;2023-01-15T09:34:54;5.30;99.90
20041;DHT22;10181;48.072;9.884;2023-01-15T09:37:20;5.30;99.90
20041;DHT22;10181;48.072;9.884;2023-01-15T09:39:45;5.30;99.90
20041;DHT22;10181;48.072;9.884;2023-01-15T09:45:16;5.20;99.90
20041;DHT22;10181;48.072;9.884;2023-01-15T09:48:05;5.20;99.90
20041;DHT22;10181;48.072;9.884;2023-01-15T09:50:44;5.10;99.90
20041;DHT22;10181;48.072;9.884;2023-01-15T09:53:27;5.10;99.90
20041;DHT22;10181;48.072;9.884;2023-01-15T09:55:59;5.00;99.90
20041;DHT22;10181;48.072;9.884;2023-01-15T09:58:34;5.00;99.90
20041;DHT22;10181;48.072;9.884;2023-01-15T10:01:01;5.00;99.90
20041;DHT22;10181;48.072;9.884;2023-01-15T10:03:41;5.00;99.90
20041;DHT22;10181;48.072;9.884;2023-01-15T10:06:24;5.00;99.90
20041;DHT22;10181;48.072;9.884;2023-01-15T10:08:59;5.00;99.90
20041;DHT22;10181;48.072;9.884;2023-01-15T10:11:42;4.90;99.90
20041;DHT22;10181;48.072;9.884;2023-01-15T10:14:49;4.90;99.90
20041;DHT22;10181;48.072;9.884;2023-01-15T10:17:27;4.90;99.90
20041;DHT22;10181;48.072;9.884;2023-01-15T10:19:54;4.90;99.90
20041;DHT22;10181;48.072;9.884;2023-01-15T10:22:38;4.90;99.90
20041;DHT22;10181;48.072;9.884;2023-01-15T10:25:15;4.90;99.90
20041;DHT22;10181;48.072;9.884;2023-01-15T10:27:46;4.90;99.90
20041;DHT22;10181;48.072;9.884;2023-01-15T10:30:54;4.90;99.90
20041;DHT22;10181;48.072;9.884;2023-01-15T10:36:14;5.00;99.90
20041;DHT22;10181;48.072;9.884;2023-01-15T10:41:51;4.90;99.90
20041;DHT22;10181;48.072;9.884;2023-01-15T10:47:06;4.90;99.90
20041;DHT22;10181;48.072;9.884;2023-01-15T10:49:35;4.90;99.90
20041;DHT22;10181;48.072;9.884;2023-01-15T10:52:12;4.90;99.90
20041;DHT22;10181;48.072;9.884;2023-01-15T10:54:48;4.90;99.90
20041;DHT22;10181;48.072;9.884;2023-01-15T10:57:35;4.90;99.90
20041;DHT22;10181;48.072;9.884;2023-01-15T11:00:03;4.80;99.90
20041;DHT22;10181;48.072;9.884;2023-01-15T11:02:39;4.80;99.90
20041;DHT22;10181;48.072;9.884;2023-01-15T11:05:05;4.80;99.90
20041;DHT22;10181;48.072;9.884;2023-01-15T11:07:45;4.80;99.90
20041;DHT22;10181;48.072;9.884;2023-01-15T11:10:14;4.80;99.90
20041;DHT22;10181;48.072;9.884;2023-01-15T11:12:54;4.80;99.90
20041;DHT22;10181;48.072;9.884;2023-01-15T11:15:40;4.70;99.90
20041;DHT22;10181;48.072;9.884;2023-01-15T11:18:38;4.70;99.90
20041;DHT22;10181;48.072;9.884;2023-01-15T11:21:23;4.70;99.90
20041;DHT22;10181;48.072;9.884;2023-01-15T11:23:49;4.60;99.90
20041;DHT22;10181;48.072;9.884;2023-01-15T11:26:20;4.60;99.90
20041;DHT22;10181;48.072;9.884;2023-01-15T11:28:47;4.50;99.90
20041;DHT22;10181;48.072;9.884;2023-01-15T11:31:14;4.40;99.90
20041;DHT22;10181;48.072;9.884;2023-01-15T11:33:44;4.30;99.90
20041;DHT22;10181;48.072;9.884;2023-01-15T11:36:23;4.30;99.90
20041;DHT22;10181;48.072;9.884;2023-01-15T11:38:50;4.20;99.90
20041;DHT22;10181;48.072;9.884;2023-01-15T11:41:33;4.20;99.90
20041;DHT22;10181;48.072;9.884;2023-01-15T11:44:20;4.10;99.90
20041;DHT22;10181;48.072;9.884;2023-01-15T11:47:12;4.10;99.90
20041;DHT22;10181;48.072;9.884;2023-01-15T11:49:57;4.00;99.90
20041;DHT22;10181;48.072;9.884;2023-01-15T11:52:45;3.90;99.90
20041;DHT22;10181;48.072;9.884;2023-01-15T11:55:14;3.70;99.90
20041;DHT22;10181;48.072;9.884;2023-01-15T11:57:43;3.70;99.90
20041;DHT22;10181;48.072;9.884;2023-01-15T12:00:24;3.60;99.90
20041;DHT22;10181;48.072;9.884;2023-01-15T12:02:53;3.60;99.90
20041;DHT22;10181;48.072;9.884;2023-01-15T12:05:27;3.70;99.90
20041;DHT22;10181;48.072;9.884;2023-01-15T12:07:56;3.70;99.90
20041;DHT22;10181;48.072;9.884;2023-01-15T12:16:56;3.60;99.90
20041;DHT22;10181;48.072;9.884;2023-01-15T12:32:19;3.70;99.90
20041;DHT22;10181;48.072;9.884;2023-01-15T12:34:52;3.70;99.90
20041;DHT22;10181;48.072;9.884;2023-01-15T12:37:31;3.70;99.90
20041;DHT22;10181;48.072;9.884;2023-01-15T12:42:41;3.60;99.90
20041;DHT22;10181;48.072;9.884;2023-01-15T12:45:30;3.60;99.90
20041;DHT22;10181;48.072;9.884;2023-01-15T12:48:04;3.60;99.90
20041;DHT22;10181;48.072;9.884;2023-01-15T12:50:46;3.60;99.90
20041;DHT22;10181;48.072;9.884;2023-01-15T12:58:51;3.60;99.90
20041;DHT22;10181;48.072;9.884;2023-01-15T13:01:41;3.50;99.90
20041;DHT22;10181;48.072;9.884;2023-01-15T13:07:15;3.50;99.90
20041;DHT22;10181;48.072;9.884;2023-01-15T13:10:11;3.50;99.90
20041;DHT22;10181;48.072;9.884;2023-01-15T13:12:37;3.50;99.90
20041;DHT22;10181;48.072;9.884;2023-01-15T13:15:03;3.60;99.90
20041;DHT22;10181;48.072;9.884;2023-01-15T13:17:50;3.60;99.90
20041;DHT22;10181;48.072;9.884;2023-01-15T13:20:40;3.50;99.90
20041;DHT22;10181;48.072;9.884;2023-01-15T13:33:53;3.50;99.90
20041;DHT22;10181;48.072;9.884;2023-01-15T13:36:25;3.50;99.90
20041;DHT22;10181;48.072;9.884;2023-01-15T13:38:55;3.40;99.90
20041;DHT22;10181;48.072;9.884;2023-01-15T13:41:29;3.30;99.90
20041;DHT22;10181;48.072;9.884;2023-01-15T13:44:22;3.30;99.90
20041;DHT22;10181;48.072;9.884;2023-01-15T13:49:30;3.20;99.90
20041;DHT22;10181;48.072;9.884;2023-01-15T13:51:57;3.20;99.90
20041;DHT22;10181;48.072;9.884;2023-01-15T13:54:29;3.20;99.90
20041;DHT22;10181;48.072;9.884;2023-01-15T13:57:20;3.20;99.90
20041;DHT22;10181;48.072;9.884;2023-01-15T13:59:46;3.20;99.90
20041;DHT22;10181;48.072;9.884;2023-01-15T14:02:36;3.10;99.90
20041;DHT22;10181;48.072;9.884;2023-01-15T14:05:33;3.10;99.90
20041;DHT22;10181;48.072;9.884;2023-01-15T14:08:00;3.00;99.90
20041;DHT22;10181;48.072;9.884;2023-01-15T14:13:18;2.90;99.90
20041;DHT22;10181;48.072;9.884;2023-01-15T14:27:18;2.90;99.90
20041;DHT22;10181;48.072;9.884;2023-01-15T14:30:09;2.90;99.90
20041;DHT22;10181;48.072;9.884;2023-01-15T14:35:23;2.90;99.90
20041;DHT22;10181;48.072;9.884;2023-01-15T14:37:53;2.90;99.90
20041;DHT22;10181;48.072;9.884;2023-01-15T14:40:27;2.90;99.90
20041;DHT22;10181;48.072;9.884;2023-01-15T14:42:55;2.90;99.90
20041;DHT22;10181;48.072;9.884;2023-01-15T14:45:28;2.90;99.90
20041;DHT22;10181;48.072;9.884;2023-01-15T14:47:57;2.90;99.90
20041;DHT22;10181;48.072;9.884;2023-01-15T14:55:51;2.80;99.90
20041;DHT22;10181;48.072;9.884;2023-01-15T14:58:39;2.80;99.90
20041;DHT22;10181;48.072;9.884;2023-01-15T15:01:56;2.80;99.90
20041;DHT22;10181;48.072;9.884;2023-01-15T15:04:18;2.80;99.90
20041;DHT22;10181;48.072;9.884;2023-01-15T15:07:09;2.90;99.90
20041;DHT22;10181;48.072;9.884;2023-01-15T15:12:47;2.80;99.90
20041;DHT22;10181;48.072;9.884;2023-01-15T15:18:21;2.80;99.90
20041;DHT22;10181;48.072;9.884;2023-01-15T15:20:53;2.80;99.90
20041;DHT22;10181;48.072;9.884;2023-01-15T15:23:27;2.80;99.90
20041;DHT22;10181;48.072;9.884;2023-01-15T15:26:00;2.80;99.90
20041;DHT22;10181;48.072;9.884;2023-01-15T15:28:27;2.80;99.90
20041;DHT22;10181;48.072;9.884;2023-01-15T15:30:53;2.80;99.90
20041;DHT22;10181;48.072;9.884;2023-01-15T15:33:24;2.80;99.90
20041;DHT22;10181;48.072;9.884;2023-01-15T15:35:53;2.80;99.90
20041;DHT22;10181;48.072;9.884;2023-01-15T15:38:21;2.80;99.90
20041;DHT22;10181;48.072;9.884;2023-01-15T15:41:05;2.80;99.90
20041;DHT22;10181;48.072;9.884;2023-01-15T15:44:04;2.70;99.90
20041;DHT22;10181;48.072;9.884;2023-01-15T15:46:52;2.80;99.90
20041;DHT22;10181;48.072;9.884;2023-01-15T15:49:38;2.70;99.90
20041;DHT22;10181;48.072;9.884;2023-01-15T15:52:18;2.80;99.90
20041;DHT22;10181;48.072;9.884;2023-01-15T15:54:55;2.80;99.90
20041;DHT22;10181;48.072;9.884;2023-01-15T15:57:22;2.70;99.90
20041;DHT22;10181;48.072;9.884;2023-01-15T15:59:49;2.70;99.90
20041;DHT22;10181;48.072;9.884;2023-01-15T16:05:14;2.80;99.90
20041;DHT22;10181;48.072;9.884;2023-01-15T16:07:38;2.80;99.90
20041;DHT22;10181;48.072;9.884;2023-01-15T16:10:14;2.70;99.90
20041;DHT22;10181;48.072;9.884;2023-01-15T16:12:50;2.70;99.90
20041;DHT22;10181;48.072;9.884;2023-01-15T16:15:27;2.70;99.90
20041;DHT22;10181;48.072;9.884;2023-01-15T16:17:55;2.60;99.90
20041;DHT22;10181;48.072;9.884;2023-01-15T16:20:21;2.70;99.90
20041;DHT22;10181;48.072;9.884;2023-01-15T16:22:54;2.60;99.90
20041;DHT22;10181;48.072;9.884;2023-01-15T16:25:37;2.60;99.90
20041;DHT22;10181;48.072;9.884;2023-01-15T16:28:04;2.60;99.90
20041;DHT22;10181;48.072;9.884;2023-01-15T16:30:31;2.60;99.90
20041;DHT22;10181;48.072;9.884;2023-01-15T16:33:03;2.50;99.90
20041;DHT22;10181;48.072;9.884;2023-01-15T16:35:32;2.50;99.90
20041;DHT22;10181;48.072;9.884;2023-01-15T16:38:01;2.50;99.90
20041;DHT22;10181;48.072;9.884;2023-01-15T16:40:38;2.50;99.90
20041;DHT22;10181;48.072;9.884;2023-01-15T16:43:12;2.50;99.90
20041;DHT22;10181;48.072;9.884;2023-01-15T16:50:54;2.40;99.90
20041;DHT22;10181;48.072;9.884;2023-01-15T16:53:39;2.40;99.90
20041;DHT22;10181;48.072;9.884;2023-01-15T16:59:00;2.30;99.90
20041;DHT22;10181;48.072;9.884;2023-01-15T17:01:36;2.30;99.90
20041;DHT22;10181;48.072;9.884;2023-01-15T17:04:12;2.30;99.90
20041;DHT22;10181;48.072;9.884;2023-01-15T17:06:40;2.30;99.90
20041;DHT22;10181;48.072;9.884;2023-01-15T17:09:12;2.40;99.90
20041;DHT22;10181;48.072;9.884;2023-01-15T17:11:38;2.30;99.90
20041;DHT22;10181;48.072;9.884;2023-01-15T17:16:33;2.30;99.90
20041;DHT22;10181;48.072;9.884;2023-01-15T17:18:59;2.30;99.90
20041;DHT22;10181;48.072;9.884;2023-01-15T17:21:28;2.30;99.90
20041;DHT22;10181;48.072;9.884;2023-01-15T17:23:55;2.30;99.90
20041;DHT22;10181;48.072;9.884;2023-01-15T17:26:23;2.30;99.90
20041;DHT22;10181;48.072;9.884;2023-01-15T17:28:50;2.30;99.90
20041;DHT22;10181;48.072;9.884;2023-01-15T17:33:44;2.20;99.90
20041;DHT22;10181;48.072;9.884;2023-01-15T17:36:10;2.30;99.90
20041;DHT22;10181;48.072;9.884;2023-01-15T17:38:35;2.20;99.90
20041;DHT22;10181;48.072;9.884;2023-01-15T17:41:01;2.20;99.90
20041;DHT22;10181;48.072;9.884;2023-01-15T17:43:31;2.20;99.90
20041;DHT22;10181;48.072;9.884;2023-01-15T17:45:57;2.20;99.90
20041;DHT22;10181;48.072;9.884;2023-01-15T17:48:25;2.20;99.90
20041;DHT22;10181;48.072;9.884;2023-01-15T17:50:50;2.20;99.90
20041;DHT22;10181;48.072;9.884;2023-01-15T17:53:18;2.20;99.90
20041;DHT22;10181;48.072;9.884;2023-01-15T17:55:44;2.20;99.90
20041;DHT22;10181;48.072;9.884;2023-01-15T17:58:28;2.20;99.90
20041;DHT22;10181;48.072;9.884;2023-01-15T18:01:18;2.20;99.90
20041;DHT22;10181;48.072;9.884;2023-01-15T18:04:03;2.20;99.90
20041;DHT22;10181;48.072;9.884;2023-01-15T18:06:51;2.20;99.90
20041;DHT22;10181;48.072;9.884;2023-01-15T18:09:18;2.20;99.90
20041;DHT22;10181;48.072;9.884;2023-01-15T18:11:44;2.10;99.90
20041;DHT22;10181;48.072;9.884;2023-01-15T18:14:10;2.10;99.90